Time;durP1;ratioP1;P1;durP2;ratioP2;P2;SDS_P1;SDS_P2;PMS_P1;PMS_P2;Temp;Humidity;BMP_temperature;BMP_pressure;BME280_temperature;BME280_humidity;BME280_pressure;Samples;Min_cycle;Max_cycle;Signal;HPM_P1;HPM_P2
2022/09/24 00:00:51;;;;;;;7.57;3.47;;;;;;;;;;5030952;28;20025;-81
2022/09/24 00:03:18;;;;;;;;;;;;;;;;;;5031315;28;20111;-80
2022/09/24 00:05:45;;;;;;;6.22;2.78;;;;;;;;;;5031022;28;19912;-81
2022/09/24 00:08:11;;;;;;;6.85;3.15;;;;;;;;;;5030871;28;20057;-81
2022/09/24 00:10:38;;;;;;;7.75;3.10;;;;;;;;;;5030376;28;20064;-81
2022/09/24 00:13:05;;;;;;;5.55;3.05;;;;;;;;;;5029394;28;20029;-80
2022/09/24 00:15:35;;;;;;;5.03;2.72;;;;;;;;;;5030617;28;20591;-79
2022/09/24 00:18:00;;;;;;;5.30;2.83;;;;;;;;;;5030412;28;20059;-81
2022/09/24 00:20:29;;;;;;;6.13;2.90;;;;;;;;;;5030000;28;20483;-78
2022/09/24 00:22:54;;;;;;;5.80;2.67;;;;;;;;;;5030977;28;20056;-80
2022/09/24 00:28:03;;;;;;;6.32;2.70;;;;;;;;;;5030400;28;20044;-80
2022/09/24 00:30:29;;;;;;;5.38;2.65;;;;;;;;;;5030212;28;20029;-81
2022/09/24 00:32:54;;;;;;;6.53;3.13;;;;;;;;;;5030380;28;20075;-81
2022/09/24 00:35:19;;;;;;;4.43;2.72;;;;;;;;;;5030454;28;20026;-81
2022/09/24 00:37:45;;;;;;;5.72;2.92;;;;;;;;;;5030383;28;20025;-78
2022/09/24 00:40:10;;;;;;;6.10;2.90;;;;;;;;;;5029116;28;20483;-77
2022/09/24 00:42:36;;;;;;;3.70;2.60;;;;;;;;;;5030292;28;20056;-76
2022/09/24 00:45:04;;;;;;;4.00;2.45;;;;;;;;;;5030125;28;20109;-77
2022/09/24 00:47:36;;;;;;;3.58;2.50;;;;;;;;;;5028345;28;20045;-75
2022/09/24 00:50:05;;;;;;;4.82;2.80;;;;;;;;;;5030278;28;20026;-76
2022/09/24 00:52:33;;;;;;;6.57;3.40;;;;;;;;;;5030129;28;20026;-75
2022/09/24 00:54:59;;;;;;;4.97;2.60;;;;;;;;;;5030357;28;20499;-76
2022/09/24 00:57:25;;;;;;;5.65;3.03;;;;;;;;;;5029641;28;20483;-76
2022/09/24 00:59:50;;;;;;;6.95;2.92;;;;;;;;;;5030208;28;20029;-76
2022/09/24 01:02:16;;;;;;;5.32;3.00;;;;;;;;;;5029615;28;20057;-76
2022/09/24 01:04:41;;;;;;;6.43;3.00;;;;;;;;;;5029905;28;20038;-75
2022/09/24 01:07:06;;;;;;;5.45;2.67;;;;;;;;;;5029785;28;20079;-75
2022/09/24 01:09:32;;;;;;;5.50;3.25;;;;;;;;;;5030011;28;20605;-76
2022/09/24 01:12:19;;;;;;;4.93;3.05;;;;;;;;;;5028603;28;20493;-75
2022/09/24 01:15:07;;;;;;;5.72;3.00;;;;;;;;;;5030176;28;20529;-77
2022/09/24 01:17:49;;;;;;;4.88;3.20;;;;;;;;;;5029533;28;20029;-77
2022/09/24 01:20:35;;;;;;;6.63;3.22;;;;;;;;;;5029913;28;20030;-78
2022/09/24 01:23:12;;;;;;;5.97;3.28;;;;;;;;;;5044984;28;20477;-77
2022/09/24 01:25:42;;;;;;;7.43;3.05;;;;;;;;;;5029879;28;20105;-78
2022/09/24 01:28:53;;;;;;;7.47;3.30;;;;;;;;;;5029790;28;20029;-78
2022/09/24 01:31:28;;;;;;;6.28;3.00;;;;;;;;;;5025916;28;20259;-77
2022/09/24 01:33:58;;;;;;;8.07;3.13;;;;;;;;;;5034042;28;20025;-77
2022/09/24 01:36:26;;;;;;;7.60;3.35;;;;;;;;;;5033508;28;20029;-77
2022/09/24 01:38:53;;;;;;;7.85;3.40;;;;;;;;;;5033431;28;20045;-78
2022/09/24 01:41:21;;;;;;;6.85;3.30;;;;;;;;;;5033550;28;20087;-77
2022/09/24 01:43:47;;;;;;;6.45;3.40;;;;;;;;;;5032466;28;20025;-78
2022/09/24 01:46:15;;;;;;;7.93;3.33;;;;;;;;;;5033560;28;20028;-79
2022/09/24 01:48:41;;;;;;;8.02;3.45;;;;;;;;;;5033760;28;20028;-81
2022/09/24 01:51:27;;;;;;;9.52;3.67;;;;;;;;;;5033598;28;20030;-81
2022/09/24 01:53:56;;;;;;;8.88;3.30;;;;;;;;;;5033710;28;20473;-81
2022/09/24 01:56:36;;;;;;;6.45;3.28;;;;;;;;;;5033253;28;20045;-80
2022/09/24 01:59:09;;;;;;;6.83;3.53;;;;;;;;;;5033102;28;20029;-77
2022/09/24 02:01:46;;;;;;;7.13;3.22;;;;;;;;;;5032958;28;20276;-80
2022/09/24 02:04:15;;;;;;;8.10;3.72;;;;;;;;;;5033142;28;20416;-78
2022/09/24 02:07:03;;;;;;;8.02;3.70;;;;;;;;;;5033021;28;20429;-76
2022/09/24 02:09:35;;;;;;;5.60;3.40;;;;;;;;;;5032538;28;20037;-77
2022/09/24 02:12:30;;;;;;;5.05;3.22;;;;;;;;;;5032842;28;20033;-77
2022/09/24 02:15:19;;;;;;;5.90;3.58;;;;;;;;;;5029439;28;20044;-79
2022/09/24 02:17:49;;;;;;;5.60;3.13;;;;;;;;;;5032604;28;20104;-78
2022/09/24 02:20:19;;;;;;;8.25;3.42;;;;;;;;;;5033192;28;20499;-80
2022/09/24 02:22:48;;;;;;;6.43;3.50;;;;;;;;;;5032945;28;20029;-80
2022/09/24 02:25:19;;;;;;;7.72;3.35;;;;;;;;;;5032980;28;20026;-78
2022/09/24 02:27:45;;;;;;;6.93;3.60;;;;;;;;;;5032524;28;20018;-81
2022/09/24 02:30:11;;;;;;;6.38;3.50;;;;;;;;;;5032733;28;20025;-81
2022/09/24 02:32:40;;;;;;;10.50;3.60;;;;;;;;;;5032662;28;20024;-82
2022/09/24 02:35:08;;;;;;;12.07;3.50;;;;;;;;;;5032736;28;20058;-81
2022/09/24 02:37:37;;;;;;;9.18;3.50;;;;;;;;;;5032465;28;20560;-81
2022/09/24 02:40:05;;;;;;;7.43;3.58;;;;;;;;;;5032709;28;20025;-78
2022/09/24 02:42:30;;;;;;;7.03;3.60;;;;;;;;;;5031912;28;20401;-80
2022/09/24 02:44:58;;;;;;;7.07;3.25;;;;;;;;;;5032830;28;20029;-80
2022/09/24 02:47:24;;;;;;;8.52;3.33;;;;;;;;;;5034483;28;20105;-81
2022/09/24 02:49:49;;;;;;;9.88;3.33;;;;;;;;;;5036648;28;20532;-80
2022/09/24 02:52:15;;;;;;;8.00;3.35;;;;;;;;;;5036889;28;20187;-79
2022/09/24 02:54:41;;;;;;;7.75;3.50;;;;;;;;;;5036405;28;20381;-80
2022/09/24 02:57:07;;;;;;;6.18;3.40;;;;;;;;;;5032744;28;20024;-80
2022/09/24 02:59:32;;;;;;;7.13;3.60;;;;;;;;;;5032743;28;20033;-80
2022/09/24 03:01:58;;;;;;;8.25;3.75;;;;;;;;;;5032071;28;20018;-81
2022/09/24 03:04:24;;;;;;;9.35;3.45;;;;;;;;;;5031836;28;20045;-78
2022/09/24 03:06:49;;;;;;;7.85;3.60;;;;;;;;;;5031874;28;20024;-79
2022/09/24 03:09:15;;;;;;;7.90;3.90;;;;;;;;;;5031846;28;20053;-81
2022/09/24 03:11:40;;;;;;;6.55;3.50;;;;;;;;;;5032044;28;20028;-81
2022/09/24 03:14:06;;;;;;;8.55;3.50;;;;;;;;;;5031876;28;20032;-76
2022/09/24 03:16:32;;;;;;;6.28;3.58;;;;;;;;;;5031816;28;20038;-77
2022/09/24 03:18:57;;;;;;;9.07;3.50;;;;;;;;;;5031921;28;20063;-77
2022/09/24 03:21:23;;;;;;;7.80;3.40;;;;;;;;;;5031681;28;20053;-80
2022/09/24 03:23:48;;;;;;;7.07;3.63;;;;;;;;;;5031605;28;20479;-78
2022/09/24 03:26:14;;;;;;;5.97;3.50;;;;;;;;;;5031657;28;20068;-77
2022/09/24 03:28:39;;;;;;;9.05;3.60;;;;;;;;;;5031704;28;20061;-80
2022/09/24 03:31:05;;;;;;;7.90;3.70;;;;;;;;;;5031891;28;20100;-79
2022/09/24 03:33:33;;;;;;;5.97;3.88;;;;;;;;;;5031422;28;20739;-82
2022/09/24 03:36:08;;;;;;;7.20;3.47;;;;;;;;;;5031668;28;20021;-81
2022/09/24 03:38:34;;;;;;;9.07;3.42;;;;;;;;;;5031016;28;20500;-82
2022/09/24 03:41:00;;;;;;;11.13;3.55;;;;;;;;;;5047176;28;20025;-82
2022/09/24 03:43:26;;;;;;;9.68;3.67;;;;;;;;;;5031333;28;20048;-82
2022/09/24 03:45:52;;;;;;;8.10;3.70;;;;;;;;;;5031442;28;20030;-82
2022/09/24 03:48:19;;;;;;;6.90;3.25;;;;;;;;;;5031015;28;20680;-79
2022/09/24 03:50:45;;;;;;;6.43;3.58;;;;;;;;;;5031175;28;20120;-80
2022/09/24 03:53:12;;;;;;;8.98;3.35;;;;;;;;;;5029734;28;20429;-80
2022/09/24 03:55:45;;;;;;;9.90;3.28;;;;;;;;;;5030310;28;20548;-80
2022/09/24 03:58:11;;;;;;;6.38;3.15;;;;;;;;;;5030629;28;20045;-81
2022/09/24 04:00:38;;;;;;;8.15;3.42;;;;;;;;;;5031369;28;20493;-81
2022/09/24 04:03:03;;;;;;;10.05;3.83;;;;;;;;;;5030580;28;20038;-82
2022/09/24 04:05:29;;;;;;;5.28;2.95;;;;;;;;;;5031337;28;20025;-83
2022/09/24 04:07:55;;;;;;;8.77;3.40;;;;;;;;;;5030875;28;20105;-82
2022/09/24 04:10:21;;;;;;;8.38;3.60;;;;;;;;;;5030998;28;20515;-82
2022/09/24 04:12:47;;;;;;;6.85;3.45;;;;;;;;;;5030773;28;20068;-82
2022/09/24 04:15:17;;;;;;;5.95;3.40;;;;;;;;;;5030656;28;20498;-81
2022/09/24 04:17:51;;;;;;;5.32;3.47;;;;;;;;;;5030506;28;20048;-82
2022/09/24 04:20:21;;;;;;;7.78;3.45;;;;;;;;;;5029112;28;20033;-82
2022/09/24 04:22:49;;;;;;;7.85;3.35;;;;;;;;;;5030819;28;20026;-82
2022/09/24 04:25:15;;;;;;;7.13;3.70;;;;;;;;;;5030814;28;20025;-82
2022/09/24 04:27:42;;;;;;;8.02;3.42;;;;;;;;;;5031223;28;20103;-82
2022/09/24 04:30:09;;;;;;;7.75;3.38;;;;;;;;;;5030553;28;20029;-77
2022/09/24 04:32:34;;;;;;;8.02;3.30;;;;;;;;;;5030355;28;20033;-76
2022/09/24 04:35:00;;;;;;;9.70;3.40;;;;;;;;;;5030254;28;20022;-76
2022/09/24 04:37:25;;;;;;;5.85;3.25;;;;;;;;;;5030578;28;20029;-78
2022/09/24 04:39:50;;;;;;;9.18;3.50;;;;;;;;;;5030277;28;20381;-77
2022/09/24 04:42:17;;;;;;;6.60;3.58;;;;;;;;;;5029167;28;20032;-79
2022/09/24 04:44:46;;;;;;;6.47;3.25;;;;;;;;;;5030264;28;20052;-78
2022/09/24 04:47:13;;;;;;;7.30;3.45;;;;;;;;;;5030333;28;20073;-76
2022/09/24 04:49:38;;;;;;;8.55;3.28;;;;;;;;;;5030059;28;20025;-78
2022/09/24 04:52:04;;;;;;;6.10;3.47;;;;;;;;;;5030264;28;20376;-79
2022/09/24 04:54:30;;;;;;;9.35;3.47;;;;;;;;;;5030112;28;20505;-79
2022/09/24 04:56:55;;;;;;;6.82;3.25;;;;;;;;;;5030184;28;20438;-76
2022/09/24 04:59:21;;;;;;;10.85;3.45;;;;;;;;;;5029712;28;20108;-77
2022/09/24 05:01:47;;;;;;;6.70;3.22;;;;;;;;;;5030189;28;20037;-78
2022/09/24 05:04:12;;;;;;;6.07;3.20;;;;;;;;;;5029798;28;20091;-77
2022/09/24 05:06:38;;;;;;;7.35;3.50;;;;;;;;;;5029831;28;20029;-79
2022/09/24 05:09:03;;;;;;;9.38;3.50;;;;;;;;;;5029724;28;20018;-81
2022/09/24 05:11:29;;;;;;;9.82;4.20;;;;;;;;;;5029911;28;20028;-81
2022/09/24 05:13:54;;;;;;;7.90;3.63;;;;;;;;;;5029911;28;20026;-79
2022/09/24 05:16:20;;;;;;;7.10;3.67;;;;;;;;;;5030079;28;20030;-82
2022/09/24 05:18:45;;;;;;;7.40;3.33;;;;;;;;;;5029698;28;20635;-82
2022/09/24 05:21:11;;;;;;;6.70;3.60;;;;;;;;;;5028819;28;20055;-79
2022/09/24 05:23:36;;;;;;;6.03;3.55;;;;;;;;;;5029814;28;20028;-81
2022/09/24 05:28:45;;;;;;;5.63;3.10;;;;;;;;;;5029584;28;20036;-82
2022/09/24 05:31:11;;;;;;;6.53;3.90;;;;;;;;;;5045357;28;20398;-81
2022/09/24 05:33:36;;;;;;;5.38;3.50;;;;;;;;;;5029756;28;20037;-77
2022/09/24 05:36:03;;;;;;;7.47;3.25;;;;;;;;;;5029942;28;20032;-80
2022/09/24 05:38:29;;;;;;;8.02;3.30;;;;;;;;;;5029718;28;20037;-81
2022/09/24 05:40:54;;;;;;;6.15;3.83;;;;;;;;;;5029650;28;20531;-81
2022/09/24 05:43:20;;;;;;;8.00;3.38;;;;;;;;;;5029852;28;20106;-79
2022/09/24 05:45:45;;;;;;;6.72;3.35;;;;;;;;;;5029597;28;20036;-78
2022/09/24 05:48:11;;;;;;;6.93;3.45;;;;;;;;;;5029674;28;20136;-76
2022/09/24 05:50:37;;;;;;;7.72;3.30;;;;;;;;;;5029407;28;20025;-78
2022/09/24 05:53:04;;;;;;;7.05;3.70;;;;;;;;;;5029969;28;20022;-79
2022/09/24 05:55:30;;;;;;;7.35;3.80;;;;;;;;;;5029859;28;20041;-77
2022/09/24 05:58:01;;;;;;;8.50;3.50;;;;;;;;;;5029963;28;20037;-78
2022/09/24 06:00:26;;;;;;;10.82;3.63;;;;;;;;;;5029903;28;20068;-77
2022/09/24 06:02:52;;;;;;;9.02;3.80;;;;;;;;;;5029389;28;20053;-78
2022/09/24 06:05:17;;;;;;;5.85;3.30;;;;;;;;;;5029589;28;20033;-78
2022/09/24 06:07:43;;;;;;;6.07;3.95;;;;;;;;;;5029832;28;20026;-76
2022/09/24 06:10:09;;;;;;;6.32;3.53;;;;;;;;;;5029369;28;20028;-80
2022/09/24 06:12:34;;;;;;;8.95;3.85;;;;;;;;;;5029475;28;20030;-81
2022/09/24 06:15:00;;;;;;;7.78;3.67;;;;;;;;;;5029211;28;20029;-80
2022/09/24 06:17:27;;;;;;;6.20;3.38;;;;;;;;;;5029846;28;20033;-79
2022/09/24 06:19:52;;;;;;;7.30;3.65;;;;;;;;;;5032493;28;20021;-81
2022/09/24 06:22:19;;;;;;;8.02;3.47;;;;;;;;;;5033050;28;20024;-79
2022/09/24 06:24:45;;;;;;;8.65;3.70;;;;;;;;;;5032707;28;20021;-80
2022/09/24 06:27:10;;;;;;;7.57;4.03;;;;;;;;;;5033172;28;20514;-80
2022/09/24 06:29:36;;;;;;;8.50;3.47;;;;;;;;;;5032613;28;20091;-81
2022/09/24 06:32:01;;;;;;;9.38;3.60;;;;;;;;;;5032813;28;20113;-81
2022/09/24 06:34:27;;;;;;;9.32;3.50;;;;;;;;;;5032624;28;20385;-80
2022/09/24 06:36:54;;;;;;;5.85;3.22;;;;;;;;;;5032798;28;20040;-80
2022/09/24 06:39:19;;;;;;;7.38;3.83;;;;;;;;;;5032519;28;20025;-80
2022/09/24 06:41:45;;;;;;;7.13;3.42;;;;;;;;;;5036035;28;20060;-79
2022/09/24 06:44:10;;;;;;;6.40;3.85;;;;;;;;;;5035646;28;20400;-80
2022/09/24 06:46:36;;;;;;;6.00;3.47;;;;;;;;;;5032615;28;20104;-79
2022/09/24 06:49:01;;;;;;;5.82;3.63;;;;;;;;;;5032716;28;20033;-75
2022/09/24 06:51:27;;;;;;;10.43;3.63;;;;;;;;;;5032230;28;20030;-77
2022/09/24 06:53:52;;;;;;;5.75;3.75;;;;;;;;;;5032475;28;20033;-78
2022/09/24 06:56:17;;;;;;;7.40;3.70;;;;;;;;;;5032151;28;20030;-76
2022/09/24 06:58:43;;;;;;;6.35;3.65;;;;;;;;;;5032457;28;20057;-78
2022/09/24 07:01:08;;;;;;;10.02;3.78;;;;;;;;;;5031944;28;20089;-76
2022/09/24 07:03:35;;;;;;;7.13;3.30;;;;;;;;;;5031914;28;20041;-75
2022/09/24 07:06:04;;;;;;;7.18;3.92;;;;;;;;;;5031999;28;20045;-77
2022/09/24 07:08:30;;;;;;;9.73;3.65;;;;;;;;;;5032020;28;20036;-75
2022/09/24 07:10:56;;;;;;;7.53;3.70;;;;;;;;;;5031476;28;20409;-76
2022/09/24 07:13:21;;;;;;;7.03;3.67;;;;;;;;;;5031832;28;20487;-76
2022/09/24 07:15:49;;;;;;;8.57;4.00;;;;;;;;;;5030334;28;20026;-76
2022/09/24 07:18:15;;;;;;;9.23;3.75;;;;;;;;;;5031860;28;20104;-76
2022/09/24 07:20:40;;;;;;;7.57;3.50;;;;;;;;;;5031638;28;20029;-76
2022/09/24 07:23:08;;;;;;;7.47;3.72;;;;;;;;;;5031847;28;20021;-75
2022/09/24 07:25:35;;;;;;;8.27;3.78;;;;;;;;;;5031725;28;20083;-77
2022/09/24 07:28:05;;;;;;;12.32;3.92;;;;;;;;;;5031608;28;20125;-78
2022/09/24 07:30:35;;;;;;;7.53;3.83;;;;;;;;;;5031173;28;20666;-78
2022/09/24 07:33:00;;;;;;;12.75;3.33;;;;;;;;;;5031589;28;20025;-77
2022/09/24 07:35:27;;;;;;;5.90;3.50;;;;;;;;;;5031685;28;20042;-78
2022/09/24 07:38:00;;;;;;;6.85;3.33;;;;;;;;;;5031609;28;20030;-78
2022/09/24 07:40:25;;;;;;;7.60;3.35;;;;;;;;;;5031204;28;20493;-80
2022/09/24 07:42:53;;;;;;;5.72;3.00;;;;;;;;;;5031660;28;20037;-77
2022/09/24 07:45:18;;;;;;;7.35;3.20;;;;;;;;;;5031153;28;20025;-78
2022/09/24 07:47:44;;;;;;;4.80;3.10;;;;;;;;;;5031196;28;20032;-81
2022/09/24 07:50:10;;;;;;;7.10;3.28;;;;;;;;;;5031029;28;20037;-77
2022/09/24 07:52:36;;;;;;;7.55;3.40;;;;;;;;;;5031088;28;20064;-76
2022/09/24 07:55:01;;;;;;;5.03;3.28;;;;;;;;;;5031495;28;20056;-77
2022/09/24 07:57:26;;;;;;;7.20;3.20;;;;;;;;;;5031290;28;20029;-78
2022/09/24 07:59:52;;;;;;;5.82;2.85;;;;;;;;;;5031326;28;20116;-78
2022/09/24 08:02:18;;;;;;;7.60;3.10;;;;;;;;;;5031190;28;20025;-78
2022/09/24 08:04:44;;;;;;;5.40;3.17;;;;;;;;;;5029745;28;20045;-81
2022/09/24 08:07:11;;;;;;;8.20;3.47;;;;;;;;;;5030999;28;20037;-80
2022/09/24 08:09:37;;;;;;;8.52;3.30;;;;;;;;;;5031443;28;20056;-81
2022/09/24 08:12:02;;;;;;;8.30;3.20;;;;;;;;;;5030694;28;20114;-79
2022/09/24 08:14:28;;;;;;;8.20;2.97;;;;;;;;;;5031068;28;20017;-80
2022/09/24 08:16:53;;;;;;;4.95;2.97;;;;;;;;;;5030465;28;20033;-76
2022/09/24 08:19:18;;;;;;;6.47;3.20;;;;;;;;;;5030016;28;20025;-75
2022/09/24 08:21:44;;;;;;;8.38;3.20;;;;;;;;;;5029750;28;20025;-77
2022/09/24 08:24:09;;;;;;;7.60;2.70;;;;;;;;;;5030656;28;20021;-78
2022/09/24 08:26:35;;;;;;;4.82;2.47;;;;;;;;;;5030490;28;20033;-76
2022/09/24 08:29:00;;;;;;;7.88;2.90;;;;;;;;;;5030640;28;20104;-75
2022/09/24 08:31:26;;;;;;;6.32;2.53;;;;;;;;;;5045475;28;20026;-78
2022/09/24 08:33:51;;;;;;;7.20;2.60;;;;;;;;;;5030551;28;20551;-79
2022/09/24 08:36:17;;;;;;;5.68;2.35;;;;;;;;;;5030382;28;20025;-77
2022/09/24 08:38:43;;;;;;;6.05;3.20;;;;;;;;;;5030148;28;20029;-77
2022/09/24 08:41:11;;;;;;;4.50;2.70;;;;;;;;;;5029572;28;20029;-78
2022/09/24 08:47:29;;;;;;;7.60;2.90;;;;;;;;;;4990798;28;20041;-77
2022/09/24 08:50:06;;;;;;;6.97;2.60;;;;;;;;;;5030418;28;20057;-79
2022/09/24 08:52:35;;;;;;;6.60;2.83;;;;;;;;;;5028428;28;20032;-81
2022/09/24 08:55:09;;;;;;;7.75;2.60;;;;;;;;;;5030111;28;20022;-81
2022/09/24 08:57:49;;;;;;;4.40;2.28;;;;;;;;;;5028264;28;20017;-81
2022/09/24 09:00:15;;;;;;;5.93;2.47;;;;;;;;;;5030038;28;20029;-80
2022/09/24 09:03:19;;;;;;;4.70;2.50;;;;;;;;;;5029477;28;20029;-77
2022/09/24 09:05:58;;;;;;;5.70;2.20;;;;;;;;;;4988204;28;20074;-82
2022/09/24 09:08:45;;;;;;;3.75;2.33;;;;;;;;;;4988061;28;20526;-79
2022/09/24 09:11:13;;;;;;;4.07;2.08;;;;;;;;;;5016404;28;20038;-80
2022/09/24 09:13:45;;;;;;;4.63;2.00;;;;;;;;;;5030221;28;20029;-77
2022/09/24 09:16:19;;;;;;;3.22;1.88;;;;;;;;;;5029721;28;20031;-80
2022/09/24 09:18:50;;;;;;;4.45;1.95;;;;;;;;;;5029736;28;20037;-82
2022/09/24 09:21:34;;;;;;;4.00;2.10;;;;;;;;;;5028279;28;20373;-80
2022/09/24 09:24:01;;;;;;;4.70;2.20;;;;;;;;;;5030092;28;20108;-79
2022/09/24 09:26:27;;;;;;;5.00;2.00;;;;;;;;;;5029720;28;20033;-80
2022/09/24 09:28:57;;;;;;;5.03;1.83;;;;;;;;;;5029799;28;20018;-79
2022/09/24 09:31:38;;;;;;;6.57;2.10;;;;;;;;;;5029356;28;20075;-80
2022/09/24 09:34:12;;;;;;;6.18;1.88;;;;;;;;;;5029702;28;20043;-77
2022/09/24 09:37:01;;;;;;;4.45;1.90;;;;;;;;;;5029715;28;20113;-79
2022/09/24 09:39:45;;;;;;;4.70;1.90;;;;;;;;;;5029750;28;20482;-76
2022/09/24 09:42:34;;;;;;;5.20;2.25;;;;;;;;;;5029343;28;20030;-75
2022/09/24 09:45:07;;;;;;;9.13;1.90;;;;;;;;;;5029387;28;20033;-77
2022/09/24 09:47:42;;;;;;;5.90;2.00;;;;;;;;;;5029253;28;20061;-75
2022/09/24 09:50:26;;;;;;;4.55;2.08;;;;;;;;;;5029664;28;20047;-75
2022/09/24 09:52:52;;;;;;;5.10;1.98;;;;;;;;;;5030537;28;20029;-76
2022/09/24 09:55:28;;;;;;;4.38;2.03;;;;;;;;;;5033714;28;20048;-75
2022/09/24 09:58:08;;;;;;;5.03;2.20;;;;;;;;;;5033233;28;20048;-75
2022/09/24 10:00:35;;;;;;;3.80;2.20;;;;;;;;;;5033350;28;20037;-78
2022/09/24 10:03:02;;;;;;;3.67;2.10;;;;;;;;;;5032850;28;20057;-75
2022/09/24 10:05:28;;;;;;;3.00;1.90;;;;;;;;;;5033031;28;20032;-77
2022/09/24 10:07:58;;;;;;;3.35;1.85;;;;;;;;;;5033030;28;20141;-76
2022/09/24 10:10:26;;;;;;;4.07;2.00;;;;;;;;;;5033746;28;20037;-76
2022/09/24 10:13:08;;;;;;;3.17;1.90;;;;;;;;;;5033324;28;20561;-76
2022/09/24 10:15:38;;;;;;;3.83;2.03;;;;;;;;;;5033186;28;20512;-77
2022/09/24 10:18:03;;;;;;;4.75;2.05;;;;;;;;;;5032821;28;20040;-77
2022/09/24 10:20:32;;;;;;;3.70;2.00;;;;;;;;;;5033107;28;20029;-77
2022/09/24 10:23:02;;;;;;;4.53;2.25;;;;;;;;;;5032557;28;20038;-76
2022/09/24 10:25:29;;;;;;;5.47;1.90;;;;;;;;;;5033041;28;20029;-77
2022/09/24 10:30:59;;;;;;;2.53;1.60;;;;;;;;;;5033022;28;20546;-78
2022/09/24 10:33:26;;;;;;;5.43;1.60;;;;;;;;;;5032839;28;20021;-78
2022/09/24 10:36:02;;;;;;;5.15;1.77;;;;;;;;;;5032979;28;20032;-77
2022/09/24 10:38:30;;;;;;;7.80;1.90;;;;;;;;;;5032214;28;20111;-77
2022/09/24 10:40:56;;;;;;;3.70;1.30;;;;;;;;;;5032178;28;20559;-77
2022/09/24 10:43:21;;;;;;;3.55;1.33;;;;;;;;;;5032509;28;20037;-76
2022/09/24 10:46:20;;;;;;;5.38;1.40;;;;;;;;;;5032706;28;20064;-80
2022/09/24 10:48:48;;;;;;;3.08;1.33;;;;;;;;;;5032441;28;20394;-78
2022/09/24 10:51:58;;;;;;;3.15;1.35;;;;;;;;;;5032359;28;20022;-77
2022/09/24 10:54:29;;;;;;;4.30;1.50;;;;;;;;;;5032129;28;20116;-77
2022/09/24 10:56:56;;;;;;;4.25;1.20;;;;;;;;;;5032284;28;20488;-78
2022/09/24 10:59:59;;;;;;;3.38;1.30;;;;;;;;;;5031913;28;20499;-77
2022/09/24 11:02:58;;;;;;;3.53;1.60;;;;;;;;;;5030452;28;20161;-77
2022/09/24 11:05:48;;;;;;;5.20;1.40;;;;;;;;;;5016418;28;20119;-77
2022/09/24 11:08:45;;;;;;;4.00;1.42;;;;;;;;;;5024975;28;20401;-77
2022/09/24 11:11:13;;;;;;;3.85;1.25;;;;;;;;;;5031952;28;20500;-76
2022/09/24 11:14:03;;;;;;;2.47;1.13;;;;;;;;;;5031682;28;20496;-78
2022/09/24 11:16:42;;;;;;;3.78;1.20;;;;;;;;;;5031743;28;20067;-76
2022/09/24 11:19:20;;;;;;;2.17;1.20;;;;;;;;;;5031785;28;20034;-76
2022/09/24 11:22:01;;;;;;;2.42;1.30;;;;;;;;;;5031860;28;20017;-78
2022/09/24 11:24:29;;;;;;;2.25;1.20;;;;;;;;;;5031734;28;20026;-77
2022/09/24 11:27:03;;;;;;;3.00;1.20;;;;;;;;;;5031885;28;20553;-77
2022/09/24 11:29:57;;;;;;;3.33;1.40;;;;;;;;;;5031651;28;20025;-81
2022/09/24 11:32:44;;;;;;;2.40;1.30;;;;;;;;;;5031339;28;20029;-81
2022/09/24 11:35:49;;;;;;;6.55;1.40;;;;;;;;;;5031435;28;20087;-80
2022/09/24 11:38:28;;;;;;;4.30;1.40;;;;;;;;;;5031212;28;20032;-82
2022/09/24 11:41:03;;;;;;;2.35;1.20;;;;;;;;;;5031575;28;20096;-80
2022/09/24 11:44:10;;;;;;;4.10;1.40;;;;;;;;;;5031116;28;20026;-81
2022/09/24 11:47:00;;;;;;;2.05;1.10;;;;;;;;;;5031214;28;20509;-81
2022/09/24 11:49:39;;;;;;;3.85;1.20;;;;;;;;;;5029871;28;20028;-81
2022/09/24 11:52:04;;;;;;;2.97;1.25;;;;;;;;;;5029554;28;20036;-81
2022/09/24 11:54:36;;;;;;;1.85;1.10;;;;;;;;;;5029555;28;20026;-79
2022/09/24 11:57:11;;;;;;;4.63;1.20;;;;;;;;;;5031343;28;20025;-80
2022/09/24 11:59:49;;;;;;;2.35;1.10;;;;;;;;;;5031029;28;20110;-81
2022/09/24 12:02:22;;;;;;;2.30;1.00;;;;;;;;;;5030731;28;20056;-79
2022/09/24 12:04:56;;;;;;;1.98;1.20;;;;;;;;;;5030686;28;20040;-80
2022/09/24 12:07:32;;;;;;;5.72;1.17;;;;;;;;;;5030937;28;20029;-80
2022/09/24 12:10:02;;;;;;;2.08;1.10;;;;;;;;;;5030659;28;20060;-78
2022/09/24 12:12:36;;;;;;;2.55;1.30;;;;;;;;;;5030563;28;20025;-77
2022/09/24 12:15:22;;;;;;;2.08;1.20;;;;;;;;;;5030169;28;20083;-77
2022/09/24 12:17:57;;;;;;;3.15;1.33;;;;;;;;;;5030932;28;20100;-77
2022/09/24 12:20:27;;;;;;;3.90;1.20;;;;;;;;;;5045966;28;20029;-77
2022/09/24 12:23:01;;;;;;;2.00;1.20;;;;;;;;;;5030527;28;20022;-76
2022/09/24 12:25:31;;;;;;;2.25;1.17;;;;;;;;;;5030588;28;20082;-79
2022/09/24 12:27:59;;;;;;;7.18;1.38;;;;;;;;;;5029127;28;20385;-77
2022/09/24 12:33:44;;;;;;;3.75;1.35;;;;;;;;;;5042894;28;20488;-78
2022/09/24 12:36:16;;;;;;;2.83;1.40;;;;;;;;;;5030834;28;20369;-77
2022/09/24 12:38:52;;;;;;;4.30;1.45;;;;;;;;;;5030204;28;20079;-79
2022/09/24 12:41:23;;;;;;;4.95;1.42;;;;;;;;;;5030358;28;20044;-78
2022/09/24 12:43:58;;;;;;;2.25;1.20;;;;;;;;;;5029819;28;20504;-78
2022/09/24 12:46:37;;;;;;;4.78;1.20;;;;;;;;;;5030293;28;20120;-75
2022/09/24 12:49:03;;;;;;;3.88;1.48;;;;;;;;;;5030292;28;20028;-76
2022/09/24 12:51:35;;;;;;;2.88;1.40;;;;;;;;;;5030352;28;20029;-76
2022/09/24 12:54:07;;;;;;;2.33;1.17;;;;;;;;;;5029909;28;20087;-76
2022/09/24 12:56:33;;;;;;;5.32;1.20;;;;;;;;;;5030280;28;20060;-77
2022/09/24 12:58:59;;;;;;;2.90;1.23;;;;;;;;;;5028818;28;20037;-78
2022/09/24 13:01:28;;;;;;;2.20;1.08;;;;;;;;;;5030227;28;20491;-77
2022/09/24 13:04:20;;;;;;;1.83;1.00;;;;;;;;;;5029752;28;20417;-78
2022/09/24 13:06:48;;;;;;;1.90;1.10;;;;;;;;;;5028135;28;20083;-76
2022/09/24 13:09:43;;;;;;;2.13;1.15;;;;;;;;;;5029908;28;20021;-78
2022/09/24 13:12:14;;;;;;;3.97;1.35;;;;;;;;;;5020831;28;20509;-76
2022/09/24 13:14:46;;;;;;;5.18;1.15;;;;;;;;;;5029863;28;20075;-76
2022/09/24 13:17:14;;;;;;;3.42;1.33;;;;;;;;;;5029617;28;20067;-76
2022/09/24 13:19:43;;;;;;;1.92;1.20;;;;;;;;;;5028428;28;20034;-76
2022/09/24 13:22:38;;;;;;;3.42;1.10;;;;;;;;;;5028453;28;20038;-78
2022/09/24 13:25:06;;;;;;;2.72;1.13;;;;;;;;;;5020885;28;20120;-76
2022/09/24 13:27:31;;;;;;;4.88;1.58;;;;;;;;;;5032446;28;20029;-77
2022/09/24 13:30:22;;;;;;;2.25;1.02;;;;;;;;;;5033930;28;20052;-76
2022/09/24 13:32:53;;;;;;;2.22;1.00;;;;;;;;;;5033679;28;20113;-76
2022/09/24 13:35:23;;;;;;;2.88;1.20;;;;;;;;;;5033544;28;20076;-76
2022/09/24 13:37:56;;;;;;;2.65;1.30;;;;;;;;;;5033674;28;20068;-77
2022/09/24 13:40:26;;;;;;;1.88;1.02;;;;;;;;;;5033783;28;20029;-77
2022/09/24 13:43:02;;;;;;;2.25;1.00;;;;;;;;;;5033591;28;20480;-78
2022/09/24 13:45:27;;;;;;;2.70;1.00;;;;;;;;;;5033413;28;20029;-78
2022/09/24 13:48:02;;;;;;;3.00;1.30;;;;;;;;;;5033699;28;20032;-78
2022/09/24 13:50:37;;;;;;;2.20;0.95;;;;;;;;;;5033357;28;20095;-79
2022/09/24 13:53:29;;;;;;;2.70;1.00;;;;;;;;;;5033205;28;20029;-78
2022/09/24 13:56:01;;;;;;;2.13;0.93;;;;;;;;;;5048480;28;20033;-79
2022/09/24 13:58:32;;;;;;;3.40;0.80;;;;;;;;;;5033434;28;20033;-76
2022/09/24 14:00:59;;;;;;;1.30;0.90;;;;;;;;;;5033134;28;20117;-76
2022/09/24 14:03:28;;;;;;;2.13;0.98;;;;;;;;;;5033239;28;20513;-78
2022/09/24 14:05:56;;;;;;;1.67;0.70;;;;;;;;;;5033385;28;20030;-76
2022/09/24 14:08:23;;;;;;;1.05;0.63;;;;;;;;;;5033516;28;20038;-80
2022/09/24 14:10:49;;;;;;;1.05;0.63;;;;;;;;;;5032914;28;20036;-81
2022/09/24 14:13:21;;;;;;;0.70;0.60;;;;;;;;;;5032717;28;20053;-80
2022/09/24 14:15:56;;;;;;;1.90;0.60;;;;;;;;;;5032932;28;20036;-80
2022/09/24 14:18:23;;;;;;;1.98;0.60;;;;;;;;;;5032942;28;20478;-80
2022/09/24 14:21:13;;;;;;;0.75;0.60;;;;;;;;;;5033011;28;20056;-79
2022/09/24 14:23:45;;;;;;;0.80;0.60;;;;;;;;;;5032790;28;20462;-80
2022/09/24 14:26:22;;;;;;;0.63;0.60;;;;;;;;;;5032837;28;20029;-79
2022/09/24 14:28:47;;;;;;;1.98;1.15;;;;;;;;;;5033219;28;20029;-79
2022/09/24 14:31:13;;;;;;;0.93;0.60;;;;;;;;;;5032718;28;20034;-81
2022/09/24 14:33:39;;;;;;;1.27;0.60;;;;;;;;;;5032531;28;20397;-80
2022/09/24 14:36:10;;;;;;;0.93;0.63;;;;;;;;;;5032503;28;20112;-81
2022/09/24 14:38:48;;;;;;;0.52;0.52;;;;;;;;;;5032386;28;20631;-80
2022/09/24 14:41:21;;;;;;;1.33;0.60;;;;;;;;;;5031578;28;20026;-81
2022/09/24 14:44:04;;;;;;;1.52;0.70;;;;;;;;;;5032723;28;20049;-78
2022/09/24 14:46:34;;;;;;;1.50;0.70;;;;;;;;;;5032275;28;20155;-79
2022/09/24 14:49:18;;;;;;;2.63;0.70;;;;;;;;;;5032555;28;20022;-76
2022/09/24 14:52:00;;;;;;;2.67;0.80;;;;;;;;;;5032380;28;20029;-76
2022/09/24 14:54:39;;;;;;;1.05;0.60;;;;;;;;;;5032270;28;20043;-77
2022/09/24 14:57:16;;;;;;;2.60;0.80;;;;;;;;;;5032303;28;20025;-78
2022/09/24 14:59:41;;;;;;;1.13;0.70;;;;;;;;;;5032404;28;20036;-77
2022/09/24 15:02:21;;;;;;;1.13;0.60;;;;;;;;;;5032452;28;20029;-78
2022/09/24 15:04:49;;;;;;;0.80;0.63;;;;;;;;;;5031745;28;20106;-77
2022/09/24 15:07:22;;;;;;;0.85;0.52;;;;;;;;;;5032071;28;20018;-77
2022/09/24 15:09:50;;;;;;;1.33;0.52;;;;;;;;;;5032283;28;20033;-77
2022/09/24 15:12:19;;;;;;;1.27;0.50;;;;;;;;;;5032229;28;20025;-76
2022/09/24 15:15:25;;;;;;;0.50;0.40;;;;;;;;;;5030693;28;20084;-78
2022/09/24 15:17:50;;;;;;;1.40;0.60;;;;;;;;;;5031681;28;20022;-78
2022/09/24 15:20:16;;;;;;;2.00;0.50;;;;;;;;;;5031736;28;20447;-78